createdAt,value
2023-02-09T00:02:13.919Z,9.33
2023-02-09T00:04:40.450Z,8.53
2023-02-09T00:07:06.994Z,7.67
2023-02-09T00:09:33.624Z,7.83
2023-02-09T00:12:18.835Z,8.73
2023-02-09T00:14:45.276Z,8.40
2023-02-09T00:17:11.765Z,10.70
2023-02-09T00:19:38.205Z,10.37
2023-02-09T00:22:04.764Z,9.77
2023-02-09T00:24:31.272Z,9.23
2023-02-09T00:26:57.799Z,9.77
2023-02-09T00:29:24.451Z,9.73
2023-02-09T00:31:51.865Z,8.90
2023-02-09T00:34:19.682Z,8.17
2023-02-09T00:36:46.462Z,8.60
2023-02-09T00:39:13.149Z,8.23
2023-02-09T00:41:58.224Z,8.80
2023-02-09T00:44:25.876Z,8.03
2023-02-09T00:46:52.561Z,7.53
2023-02-09T00:49:19.849Z,8.30
2023-02-09T00:51:46.660Z,8.00
2023-02-09T00:54:14.279Z,8.23
2023-02-09T00:56:41.046Z,7.80
2023-02-09T00:59:07.966Z,7.90
2023-02-09T01:01:35.780Z,8.70
2023-02-09T01:04:05.397Z,8.67
2023-02-09T01:06:32.303Z,7.70
2023-02-09T01:08:59.006Z,7.93
2023-02-09T01:11:31.689Z,9.07
2023-02-09T01:13:59.492Z,7.40
2023-02-09T01:16:28.740Z,9.17
2023-02-09T01:18:56.093Z,8.60
2023-02-09T01:21:23.523Z,7.17
2023-02-09T01:23:50.299Z,7.33
2023-02-09T01:26:18.116Z,9.47
2023-02-09T01:28:44.838Z,8.63
2023-02-09T01:31:27.815Z,8.43
2023-02-09T01:33:55.950Z,7.70
2023-02-09T01:36:22.920Z,9.03
2023-02-09T01:38:50.825Z,8.90
2023-02-09T01:41:17.713Z,8.33
2023-02-09T01:43:48.336Z,8.07
2023-02-09T01:46:14.799Z,8.53
2023-02-09T01:48:41.677Z,7.67
2023-02-09T01:51:08.449Z,8.50
2023-02-09T01:53:34.945Z,7.77
2023-02-09T01:56:10.915Z,8.67
2023-02-09T01:58:37.906Z,7.40
2023-02-09T02:01:05.519Z,7.20
2023-02-09T02:03:32.574Z,7.93
2023-02-09T02:06:06.026Z,8.00
2023-02-09T02:08:38.269Z,7.90
2023-02-09T02:11:05.560Z,7.27
2023-02-09T02:13:32.001Z,8.33
2023-02-09T02:16:27.549Z,8.70
2023-02-09T02:19:17.282Z,8.57
2023-02-09T02:22:04.370Z,8.67
2023-02-09T02:25:05.455Z,8.00
2023-02-09T02:27:46.811Z,9.03
2023-02-09T02:30:25.473Z,9.48
2023-02-09T02:33:19.805Z,8.40
2023-02-09T02:35:54.178Z,8.83
2023-02-09T02:38:38.483Z,8.17
2023-02-09T02:41:16.399Z,8.17
2023-02-09T02:44:04.517Z,8.33
2023-02-09T02:46:39.643Z,7.77
2023-02-09T02:49:32.386Z,8.27
2023-02-09T02:52:03.791Z,7.00
2023-02-09T02:54:38.424Z,7.82
2023-02-09T02:57:11.589Z,7.43
2023-02-09T02:59:47.027Z,7.60
2023-02-09T03:02:23.812Z,6.70
2023-02-09T03:04:54.385Z,7.60
2023-02-09T03:07:20.952Z,7.07
2023-02-09T03:09:52.188Z,8.37
2023-02-09T03:12:31.177Z,8.60
2023-02-09T03:15:06.670Z,7.37
2023-02-09T03:17:45.215Z,8.03
2023-02-09T03:20:25.778Z,9.73
2023-02-09T03:22:58.208Z,9.00
2023-02-09T03:25:35.132Z,9.20
2023-02-09T03:28:19.369Z,8.37
2023-02-09T03:30:49.714Z,9.00
2023-02-09T03:33:20.981Z,9.20
2023-02-09T03:35:51.791Z,8.45
2023-02-09T03:38:18.355Z,7.50
2023-02-09T03:40:46.189Z,7.33
2023-02-09T03:43:13.416Z,7.57
2023-02-09T03:45:40.075Z,8.47
2023-02-09T03:48:07.032Z,7.93
2023-02-09T03:50:35.658Z,6.87
2023-02-09T03:53:06.510Z,8.53
2023-02-09T03:55:34.184Z,7.70
2023-02-09T03:58:00.727Z,7.53
2023-02-09T04:00:30.526Z,8.03
2023-02-09T04:02:59.330Z,7.67
2023-02-09T04:05:25.852Z,8.20
2023-02-09T04:07:52.353Z,7.30
2023-02-09T04:10:19.135Z,8.43
2023-02-09T04:12:45.604Z,7.87
2023-02-09T04:15:12.185Z,8.30
2023-02-09T04:17:38.697Z,7.53
2023-02-09T04:20:05.614Z,9.20
2023-02-09T04:22:32.120Z,8.70
2023-02-09T04:24:58.513Z,7.17
2023-02-09T04:27:24.993Z,9.60
2023-02-09T04:29:51.461Z,8.10
2023-02-09T04:32:17.988Z,7.50
2023-02-09T04:34:44.442Z,8.27
2023-02-09T04:37:11.057Z,8.03
2023-02-09T04:39:37.526Z,8.17
2023-02-09T04:42:04.011Z,8.73
2023-02-09T04:44:30.681Z,9.07
2023-02-09T04:46:57.192Z,8.87
2023-02-09T04:49:23.620Z,8.77
2023-02-09T04:51:51.237Z,8.73
2023-02-09T04:54:17.803Z,7.60
2023-02-09T04:56:44.207Z,8.00
2023-02-09T04:59:29.329Z,8.17
2023-02-09T05:01:55.843Z,8.47
2023-02-09T05:04:22.250Z,7.63
2023-02-09T05:06:48.814Z,7.43
2023-02-09T05:09:15.264Z,9.47
2023-02-09T05:11:41.812Z,9.27
2023-02-09T05:14:08.253Z,8.30
2023-02-09T05:16:37.606Z,10.43
2023-02-09T05:19:05.235Z,9.30
2023-02-09T05:21:31.685Z,7.97
2023-02-09T05:23:58.072Z,9.47
2023-02-09T05:26:24.513Z,7.33
2023-02-09T05:28:50.952Z,8.03
2023-02-09T05:31:18.232Z,8.77
2023-02-09T05:33:44.874Z,8.17
2023-02-09T05:36:12.841Z,8.10
2023-02-09T05:38:40.125Z,8.53
2023-02-09T05:41:11.940Z,7.03
2023-02-09T05:46:07.773Z,7.93
2023-02-09T05:48:34.652Z,7.37
2023-02-09T05:51:01.369Z,7.77
2023-02-09T05:53:27.787Z,8.00
2023-02-09T05:55:54.276Z,7.57
2023-02-09T05:58:20.672Z,8.97
2023-02-09T06:00:47.381Z,8.60
2023-02-09T06:03:14.058Z,9.07
2023-02-09T06:05:40.646Z,9.73
2023-02-09T06:08:07.051Z,9.03
2023-02-09T06:10:34.005Z,8.87
2023-02-09T06:13:00.406Z,9.47
2023-02-09T06:15:26.833Z,8.23
2023-02-09T06:17:53.335Z,8.57
2023-02-09T06:20:19.753Z,8.63
2023-02-09T06:22:46.168Z,8.93
2023-02-09T06:25:12.654Z,8.77
2023-02-09T06:27:39.200Z,9.17
2023-02-09T06:30:06.832Z,7.43
2023-02-09T06:32:33.260Z,8.43
2023-02-09T06:34:59.803Z,8.53
2023-02-09T06:37:26.336Z,8.97
2023-02-09T06:39:52.926Z,8.80
2023-02-09T06:42:19.370Z,8.40
2023-02-09T06:44:45.808Z,9.10
2023-02-09T06:47:12.312Z,8.70
2023-02-09T06:49:38.795Z,9.83
2023-02-09T06:52:05.471Z,10.13
2023-02-09T06:54:32.006Z,8.57
2023-02-09T06:56:58.435Z,8.53
2023-02-09T06:59:25.117Z,8.30
2023-02-09T07:01:54.633Z,8.43
2023-02-09T07:04:21.626Z,8.87
2023-02-09T07:06:48.166Z,8.17
2023-02-09T07:09:14.593Z,9.00
2023-02-09T07:11:41.031Z,8.60
2023-02-09T07:14:07.522Z,9.57
2023-02-09T07:16:34.058Z,8.47
2023-02-09T07:19:01.079Z,8.87
2023-02-09T07:21:27.520Z,9.57
2023-02-09T07:23:53.953Z,9.27
2023-02-09T07:26:20.433Z,12.80
2023-02-09T07:28:47.076Z,14.20
2023-02-09T07:31:15.764Z,17.30
2023-02-09T07:33:43.069Z,17.33
2023-02-09T07:36:11.986Z,17.13
2023-02-09T07:38:40.705Z,15.33
2023-02-09T07:41:12.720Z,15.00
2023-02-09T07:46:07.923Z,13.00
2023-02-09T07:48:35.714Z,13.77
2023-02-09T07:51:04.573Z,13.87
2023-02-09T07:53:31.155Z,14.20
2023-02-09T07:55:58.152Z,11.30
2023-02-09T07:58:24.733Z,11.97
2023-02-09T08:00:51.666Z,12.43
2023-02-09T08:03:20.827Z,13.10
2023-02-09T08:06:19.676Z,11.57
2023-02-09T08:08:47.934Z,13.17
2023-02-09T08:11:16.701Z,16.97
2023-02-09T08:13:44.569Z,14.00
2023-02-09T08:16:15.754Z,14.00
2023-02-09T08:18:50.040Z,11.77
2023-02-09T08:21:17.710Z,12.90
2023-02-09T08:23:46.484Z,11.27
2023-02-09T08:26:14.001Z,11.30
2023-02-09T08:28:45.542Z,10.93
2023-02-09T08:31:18.743Z,10.95
2023-02-09T08:33:47.473Z,11.30
2023-02-09T08:36:16.345Z,10.30
2023-02-09T08:38:42.948Z,13.15
2023-02-09T08:41:12.269Z,10.55
2023-02-09T08:43:39.346Z,10.30
2023-02-09T08:46:12.715Z,10.55
2023-02-09T08:48:42.324Z,10.05
2023-02-09T08:51:10.648Z,11.43
2023-02-09T08:53:37.362Z,11.85
2023-02-09T08:56:04.116Z,10.35
2023-02-09T08:58:32.041Z,11.93
2023-02-09T09:00:59.927Z,11.65
2023-02-09T09:03:31.414Z,10.45
2023-02-09T09:06:00.225Z,10.27
2023-02-09T09:08:27.483Z,11.45
2023-02-09T09:10:58.980Z,10.45
2023-02-09T09:13:25.985Z,11.85
2023-02-09T09:15:55.437Z,11.77
2023-02-09T09:18:22.948Z,11.25
2023-02-09T09:20:49.624Z,9.90
2023-02-09T09:23:16.315Z,9.85
2023-02-09T09:25:43.308Z,9.40
2023-02-09T09:28:10.438Z,10.48
2023-02-09T09:30:36.942Z,8.52
2023-02-09T09:33:03.661Z,9.73
2023-02-09T09:35:31.028Z,8.07
2023-02-09T09:37:58.527Z,10.80
2023-02-09T09:40:28.591Z,9.50
2023-02-09T09:42:58.145Z,9.55
2023-02-09T09:45:28.301Z,8.82
2023-02-09T09:47:56.525Z,11.10
2023-02-09T09:50:29.494Z,9.05
2023-02-09T09:53:09.256Z,9.52
2023-02-09T09:55:38.451Z,7.22
2023-02-09T09:58:07.248Z,5.63
2023-02-09T10:00:40.240Z,6.70
2023-02-09T10:03:19.359Z,5.65
2023-02-09T10:06:12.259Z,5.25
2023-02-09T10:09:07.946Z,5.68
2023-02-09T10:11:49.084Z,5.65
2023-02-09T10:14:16.116Z,5.30
2023-02-09T10:16:44.023Z,5.50
2023-02-09T10:19:26.073Z,5.13
2023-02-09T10:24:24.031Z,5.57
2023-02-09T10:27:34.048Z,6.38
2023-02-09T10:30:20.669Z,5.60
2023-02-09T10:32:47.778Z,5.70
2023-02-09T10:35:27.187Z,5.47
2023-02-09T10:38:02.376Z,5.53
2023-02-09T10:40:32.616Z,7.05
2023-02-09T10:43:05.811Z,5.60
2023-02-09T10:45:39.504Z,5.57
2023-02-09T10:48:18.840Z,5.03
2023-02-09T10:51:05.725Z,5.57
2023-02-09T10:53:41.445Z,5.80
2023-02-09T10:56:23.338Z,5.28
2023-02-09T10:58:53.526Z,5.68
2023-02-09T11:01:24.443Z,5.43
2023-02-09T11:04:06.790Z,6.07
2023-02-09T11:06:51.017Z,4.93
2023-02-09T11:09:20.925Z,5.10
2023-02-09T11:11:47.466Z,5.45
2023-02-09T11:14:17.207Z,6.13
2023-02-09T11:16:46.577Z,5.63
2023-02-09T11:19:31.960Z,6.05
2023-02-09T11:22:13.135Z,6.38
2023-02-09T11:25:18.060Z,5.67
2023-02-09T11:28:27.039Z,6.75
2023-02-09T11:31:31.184Z,6.03
2023-02-09T11:34:19.675Z,6.30
2023-02-09T11:37:02.365Z,6.03
2023-02-09T11:39:57.514Z,5.80
2023-02-09T11:42:46.573Z,5.70
2023-02-09T11:45:28.000Z,6.47
2023-02-09T11:48:05.716Z,5.35
2023-02-09T11:50:45.095Z,6.13
2023-02-09T11:53:36.583Z,5.70
2023-02-09T11:56:06.029Z,5.72
2023-02-09T11:58:39.457Z,5.60
2023-02-09T12:01:33.883Z,6.80
2023-02-09T12:04:06.073Z,5.85
2023-02-09T12:06:38.713Z,7.43
2023-02-09T12:09:17.210Z,6.22
2023-02-09T12:12:01.475Z,6.35
2023-02-09T12:14:39.447Z,5.75
2023-02-09T12:29:41.094Z,6.70
2023-02-09T12:32:08.097Z,8.40
2023-02-09T12:34:41.810Z,6.50
2023-02-09T12:37:16.885Z,6.75
2023-02-09T12:40:01.882Z,6.97
2023-02-09T12:42:44.664Z,7.07
2023-02-09T12:45:34.571Z,7.95
2023-02-09T12:48:17.621Z,7.28
2023-02-09T12:50:44.045Z,7.20
2023-02-09T12:53:22.643Z,7.75
2023-02-09T12:55:59.212Z,7.47
2023-02-09T12:58:52.944Z,7.47
2023-02-09T13:01:21.021Z,7.10
2023-02-09T13:04:00.863Z,7.45
2023-02-09T13:06:51.581Z,8.02
2023-02-09T13:09:28.926Z,7.72
2023-02-09T13:12:14.628Z,7.45
2023-02-09T13:14:48.834Z,7.00
2023-02-09T13:17:39.568Z,7.35
2023-02-09T13:20:34.025Z,7.57
2023-02-09T13:23:29.037Z,7.50
2023-02-09T13:26:02.141Z,8.38
2023-02-09T13:28:28.747Z,7.15
2023-02-09T13:30:55.332Z,7.20
2023-02-09T13:33:35.417Z,7.85
2023-02-09T13:36:11.124Z,7.72
2023-02-09T13:38:42.665Z,7.85
2023-02-09T13:41:24.905Z,7.88
2023-02-09T13:43:51.511Z,7.40
2023-02-09T13:46:29.084Z,8.57
2023-02-09T13:49:10.202Z,6.97
2023-02-09T13:51:36.624Z,7.50
2023-02-09T13:54:03.396Z,7.45
2023-02-09T13:56:31.650Z,7.90
2023-02-09T13:58:59.688Z,7.35
2023-02-09T14:01:30.148Z,7.90
2023-02-09T14:04:10.470Z,8.40
2023-02-09T14:06:44.633Z,7.75
2023-02-09T14:09:17.533Z,8.15
2023-02-09T14:11:53.024Z,7.47
2023-02-09T14:14:50.741Z,7.97
2023-02-09T14:17:34.790Z,7.95
2023-02-09T14:20:03.347Z,7.65
2023-02-09T14:22:37.730Z,7.28
2023-02-09T14:25:13.205Z,8.98
2023-02-09T14:27:40.621Z,7.50
2023-02-09T14:30:25.955Z,8.75
2023-02-09T14:32:57.845Z,7.60
2023-02-09T14:35:30.998Z,9.40
2023-02-09T14:38:01.172Z,7.72
2023-02-09T14:40:27.879Z,7.18
2023-02-09T14:42:58.862Z,8.75
2023-02-09T14:45:25.381Z,7.73
2023-02-09T14:47:54.084Z,7.20
2023-02-09T14:50:23.572Z,7.95
2023-02-09T14:52:54.505Z,8.07
2023-02-09T14:55:25.713Z,7.93
2023-02-09T14:57:52.425Z,7.10
2023-02-09T15:00:30.373Z,8.25
2023-02-09T15:02:58.628Z,7.78
2023-02-09T15:05:26.851Z,8.57
2023-02-09T15:07:59.016Z,8.45
2023-02-09T15:11:03.068Z,8.07
2023-02-09T15:13:30.542Z,9.50
2023-02-09T15:16:00.047Z,8.00
2023-02-09T15:18:27.305Z,7.68
2023-02-09T15:20:54.379Z,8.60
2023-02-09T15:23:20.941Z,8.63
2023-02-09T15:25:49.424Z,10.02
2023-02-09T16:14:23.192Z,10.73
2023-02-09T16:16:50.679Z,9.18
2023-02-09T16:19:17.678Z,9.63
2023-02-09T16:21:51.404Z,9.18
2023-02-09T16:24:23.858Z,9.10
2023-02-09T16:26:50.390Z,8.40
2023-02-09T16:29:16.906Z,8.77
2023-02-09T16:31:43.385Z,8.85
2023-02-09T16:34:15.383Z,9.07
2023-02-09T16:36:42.605Z,10.52
2023-02-09T16:39:20.238Z,9.98
2023-02-09T16:41:47.743Z,10.63
2023-02-09T16:44:19.225Z,11.57
2023-02-09T16:46:48.383Z,10.95
2023-02-09T16:49:26.632Z,12.35
2023-02-09T16:51:57.838Z,13.38
2023-02-09T16:54:24.393Z,11.20
2023-02-09T16:56:54.591Z,10.90
2023-02-09T16:59:21.316Z,9.85
2023-02-09T17:01:49.205Z,9.50
2023-02-09T17:04:15.856Z,9.30
2023-02-09T17:06:42.476Z,8.00
2023-02-09T17:09:15.514Z,8.85
2023-02-09T17:11:43.032Z,8.05
2023-02-09T17:14:09.600Z,10.02
2023-02-09T17:16:39.222Z,10.40
2023-02-09T17:19:12.298Z,9.98
2023-02-09T17:21:40.349Z,9.98
2023-02-09T17:24:14.193Z,9.75
2023-02-09T17:26:40.882Z,10.20
2023-02-09T17:29:11.289Z,8.93
2023-02-09T17:31:52.360Z,10.82
2023-02-09T17:34:20.289Z,9.25
2023-02-09T17:36:46.767Z,9.60
2023-02-09T17:39:13.747Z,11.07
2023-02-09T17:41:45.278Z,9.60
2023-02-09T17:44:31.918Z,7.85
2023-02-09T17:47:05.975Z,10.75
2023-02-09T17:49:34.921Z,9.68
2023-02-09T17:52:02.492Z,10.38
2023-02-09T17:54:29.061Z,9.93
2023-02-09T17:56:55.507Z,9.43
2023-02-09T17:59:21.991Z,9.20
2023-02-09T18:01:50.242Z,9.00
2023-02-09T18:04:25.031Z,9.75
2023-02-09T18:06:51.633Z,10.07
2023-02-09T18:09:18.137Z,8.27
2023-02-09T18:11:44.562Z,7.20
2023-02-09T18:14:15.905Z,7.63
2023-02-09T18:16:45.172Z,7.88
2023-02-09T18:19:13.279Z,7.18
2023-02-09T18:21:52.882Z,8.35
2023-02-09T18:24:21.401Z,9.73
2023-02-09T18:26:49.904Z,9.70
2023-02-09T18:29:17.913Z,10.77
2023-02-09T18:31:44.522Z,9.70
2023-02-09T18:34:10.983Z,9.63
2023-02-09T18:36:39.552Z,8.05
2023-02-09T18:39:11.089Z,8.75
2023-02-09T18:41:37.573Z,8.52
2023-02-09T18:44:04.122Z,9.10
2023-02-09T18:46:30.740Z,7.00
2023-02-09T18:48:57.338Z,6.72
2023-02-09T18:51:24.093Z,6.70
2023-02-09T18:53:51.270Z,6.25
2023-02-09T18:56:25.767Z,8.50
2023-02-09T18:58:52.637Z,8.27
2023-02-09T19:01:25.216Z,9.15
2023-02-09T19:03:53.180Z,6.88
2023-02-09T19:06:20.623Z,8.30
2023-02-09T19:08:48.771Z,8.02
2023-02-09T19:11:17.025Z,8.55
2023-02-09T19:14:03.690Z,8.70
2023-02-09T19:16:30.413Z,8.45
2023-02-09T19:18:58.273Z,8.23
2023-02-09T19:21:24.923Z,8.73
2023-02-09T19:23:53.970Z,9.50
2023-02-09T19:26:20.962Z,8.55
2023-02-09T19:28:48.247Z,10.00
2023-02-09T19:31:17.275Z,8.30
2023-02-09T19:33:44.176Z,7.55
2023-02-09T19:36:11.756Z,9.40
2023-02-09T19:38:40.262Z,9.85
2023-02-09T19:41:11.832Z,8.40
2023-02-09T19:43:39.799Z,10.40
2023-02-09T19:46:07.392Z,8.73
2023-02-09T19:48:40.004Z,10.15
2023-02-09T19:51:15.010Z,8.07
2023-02-09T19:53:44.676Z,10.32
2023-02-09T19:56:19.612Z,13.10
2023-02-09T19:58:50.219Z,12.10
2023-02-09T20:01:18.012Z,12.82
2023-02-09T20:03:44.750Z,11.13
2023-02-09T20:06:14.214Z,12.15
2023-02-09T20:08:40.900Z,11.45
2023-02-09T20:11:11.146Z,8.98
2023-02-09T20:13:38.767Z,10.30
2023-02-09T20:16:10.471Z,8.77
2023-02-09T20:18:37.331Z,9.55
2023-02-09T20:21:10.614Z,9.83
2023-02-09T20:23:37.275Z,9.43
2023-02-09T20:26:16.673Z,9.17
2023-02-09T20:28:44.410Z,8.87
2023-02-09T20:31:27.924Z,9.70
2023-02-09T20:33:54.965Z,11.60
2023-02-09T20:36:23.784Z,11.70
2023-02-09T20:38:50.977Z,12.27
2023-02-09T20:41:18.209Z,10.37
2023-02-09T20:44:03.925Z,10.67
2023-02-09T20:46:52.144Z,10.77
2023-02-09T20:49:19.469Z,9.60
2023-02-09T20:51:46.365Z,10.73
2023-02-09T20:54:13.575Z,10.50
2023-02-09T20:56:40.175Z,10.00
2023-02-09T20:59:07.460Z,10.93
2023-02-09T21:01:36.117Z,10.10
2023-02-09T21:04:02.582Z,9.30
2023-02-09T21:06:29.098Z,10.10
2023-02-09T21:08:55.643Z,10.27
2023-02-09T21:11:22.250Z,10.50
2023-02-09T21:13:51.742Z,10.10
2023-02-09T21:16:20.287Z,11.13
2023-02-09T21:18:47.921Z,11.63
2023-02-09T21:21:17.018Z,13.67
2023-02-09T21:23:44.917Z,13.13
2023-02-09T21:26:14.338Z,12.93
2023-02-09T21:28:41.073Z,16.43
2023-02-09T21:31:17.082Z,14.10
2023-02-09T21:33:43.604Z,11.63
2023-02-09T21:36:10.746Z,9.37
2023-02-09T21:38:41.649Z,11.80
2023-02-09T21:41:36.305Z,13.13
2023-02-09T21:44:03.247Z,12.20
2023-02-09T21:46:30.050Z,13.13
2023-02-09T21:48:56.613Z,12.93
2023-02-09T21:51:24.032Z,12.77
2023-02-09T21:53:50.554Z,12.63
2023-02-09T21:56:17.620Z,11.53
2023-02-09T21:58:44.341Z,12.73
2023-02-09T22:01:11.201Z,12.30
2023-02-09T22:03:42.541Z,11.73
2023-02-09T22:06:10.443Z,11.48
2023-02-09T22:08:37.145Z,11.47
2023-02-09T22:11:05.986Z,10.83
2023-02-09T22:13:33.160Z,10.90
2023-02-09T22:16:00.736Z,9.73
2023-02-09T22:18:29.320Z,10.90
2023-02-09T22:20:56.700Z,9.50
2023-02-09T22:23:26.979Z,10.20
2023-02-09T22:26:01.024Z,11.03
2023-02-09T22:28:28.277Z,10.83
2023-02-09T22:30:55.534Z,10.80
2023-02-09T22:33:22.983Z,11.00
2023-02-09T22:35:49.691Z,11.47
2023-02-09T22:38:16.161Z,12.13
2023-02-09T22:40:42.693Z,10.97
2023-02-09T22:43:09.232Z,10.80
2023-02-09T22:45:35.947Z,10.77
2023-02-09T22:48:02.455Z,11.07
2023-02-09T22:50:28.901Z,11.27
2023-02-09T22:52:55.350Z,11.03
2023-02-09T22:55:21.855Z,11.00
2023-02-09T22:57:48.765Z,10.27
2023-02-09T23:00:16.026Z,11.63
2023-02-09T23:02:42.841Z,10.20
2023-02-09T23:05:09.486Z,11.40
2023-02-09T23:07:35.912Z,11.40
2023-02-09T23:10:02.473Z,10.93
2023-02-09T23:12:29.975Z,10.17
2023-02-09T23:14:56.437Z,11.00
2023-02-09T23:17:26.944Z,10.97
2023-02-09T23:19:53.431Z,10.50
2023-02-09T23:22:20.191Z,11.93
2023-02-09T23:24:46.974Z,11.23
2023-02-09T23:27:13.453Z,11.73
2023-02-09T23:29:39.897Z,11.30
2023-02-09T23:32:06.391Z,11.37
2023-02-09T23:34:33.625Z,11.30
2023-02-09T23:37:05.844Z,10.53
2023-02-09T23:39:40.212Z,10.23
2023-02-09T23:42:06.666Z,12.33
2023-02-09T23:44:33.752Z,12.47
2023-02-09T23:47:00.254Z,13.17
2023-02-09T23:49:26.702Z,12.30
2023-02-09T23:51:53.158Z,12.53
2023-02-09T23:54:20.684Z,13.10
2023-02-09T23:56:49.513Z,12.67
2023-02-09T23:59:16.207Z,12.13
